Time;durP1;ratioP1;P1;durP2;ratioP2;P2;SDS_P1;SDS_P2;PMS_P1;PMS_P2;Temp;Humidity;BMP_temperature;BMP_pressure;BME280_temperature;BME280_humidity;BME280_pressure;Samples;Min_cycle;Max_cycle;Signal;HPM_P1;HPM_P2
2021/07/06 00:01:27;;;;;;;;;2.00;2.00;;;;;-145.01;100.00;59511.53;5117483;27;46154;-69
2021/07/06 00:03:53;;;;;;;;;2.00;2.00;;;;;-145.01;100.00;59511.53;5118080;27;45385;-70
2021/07/06 00:06:19;;;;;;;;;3.00;1.33;;;;;-145.01;100.00;59511.53;5117411;27;45478;-70
2021/07/06 00:08:45;;;;;;;;;2.00;2.00;;;;;-145.01;100.00;59511.53;5116914;27;45498;-70
2021/07/06 00:11:10;;;;;;;;;2.00;2.00;;;;;-145.01;100.00;59511.53;5116920;27;46046;-70
2021/07/06 00:13:35;;;;;;;;;3.67;2.67;;;;;-145.01;100.00;59511.53;5117385;27;45473;-70
2021/07/06 00:16:01;;;;;;;;;3.00;1.67;;;;;-145.01;100.00;59511.53;5118210;27;45475;-70
2021/07/06 00:18:26;;;;;;;;;1.00;1.00;;;;;-145.01;100.00;59511.53;5117528;27;45264;-70
2021/07/06 00:20:51;;;;;;;;;2.00;1.67;;;;;-145.01;100.00;59511.53;5116747;27;45381;-70
2021/07/06 00:23:17;;;;;;;;;1.00;0.00;;;;;-145.01;100.00;59511.53;5116403;27;45423;-70
2021/07/06 00:25:42;;;;;;;;;2.00;2.00;;;;;-145.01;100.00;59511.53;5117136;27;45409;-71
2021/07/06 00:28:07;;;;;;;;;2.33;1.00;;;;;-145.01;100.00;59511.53;5117266;27;45483;-69
2021/07/06 00:30:33;;;;;;;;;1.00;1.00;;;;;-145.01;100.00;59511.53;5117451;27;45723;-70
2021/07/06 00:32:58;;;;;;;;;3.00;1.00;;;;;-145.01;100.00;59511.53;5116033;27;45551;-69
2021/07/06 00:35:24;;;;;;;;;1.33;1.33;;;;;-145.01;100.00;59511.53;5117060;27;45460;-70
2021/07/06 00:37:50;;;;;;;;;1.00;1.00;;;;;-145.01;100.00;59511.53;5097432;27;45553;-69
2021/07/06 00:40:16;;;;;;;;;2.67;1.67;;;;;-145.01;100.00;59511.53;5116667;27;45439;-70
2021/07/06 00:42:46;;;;;;;;;1.00;1.00;;;;;-145.01;100.00;59511.53;5114842;27;45321;-69
2021/07/06 00:45:13;;;;;;;;;1.00;1.00;;;;;-145.01;100.00;59511.53;5098327;27;45512;-69
2021/07/06 00:47:41;;;;;;;;;1.67;0.00;;;;;-145.01;100.00;59511.53;5116300;27;45461;-69
2021/07/06 00:50:09;;;;;;;;;1.00;1.00;;;;;-145.01;100.00;59511.53;5115869;27;46248;-70
2021/07/06 00:52:35;;;;;;;;;1.00;1.00;;;;;-145.01;100.00;59511.53;5116563;27;45646;-70
2021/07/06 00:55:01;;;;;;;;;1.00;1.00;;;;;-145.01;100.00;59511.53;5117234;27;45346;-70
2021/07/06 00:57:30;;;;;;;;;1.00;1.00;;;;;-145.01;100.00;59511.53;5116583;27;45474;-70
2021/07/06 01:00:17;;;;;;;;;0.00;0.00;;;;;-145.01;100.00;59511.53;5106576;27;47701;-70
2021/07/06 01:02:44;;;;;;;;;0.67;0.67;;;;;-145.01;100.00;59511.53;5116001;27;45453;-70
2021/07/06 01:05:13;;;;;;;;;1.00;1.00;;;;;-145.01;100.00;59511.53;5115922;27;45269;-70
2021/07/06 01:07:39;;;;;;;;;0.00;0.00;;;;;-145.01;100.00;59511.53;5116264;27;45523;-69
2021/07/06 01:10:06;;;;;;;;;3.00;2.00;;;;;-145.01;100.00;59511.53;5116375;27;45324;-70
2021/07/06 01:12:32;;;;;;;;;0.00;0.00;;;;;-145.01;100.00;59511.53;5116566;27;45439;-69
2021/07/06 01:15:05;;;;;;;;;1.00;0.00;;;;;-145.01;100.00;59511.53;5116053;27;45315;-70
2021/07/06 01:17:31;;;;;;;;;1.00;0.00;;;;;-145.01;100.00;59511.53;5115932;27;45333;-70
2021/07/06 01:20:14;;;;;;;;;1.00;1.00;;;;;-145.01;100.00;59511.53;5115331;27;46886;-69
2021/07/06 01:22:39;;;;;;;;;0.67;0.00;;;;;-145.01;100.00;59511.53;5100967;27;45444;-70
2021/07/06 01:25:07;;;;;;;;;0.00;0.00;;;;;-145.01;100.00;59511.53;5116327;27;45466;-70
2021/07/06 01:27:35;;;;;;;;;1.00;0.67;;;;;-145.01;100.00;59511.53;5097736;27;45384;-69
2021/07/06 01:30:00;;;;;;;;;0.00;0.00;;;;;-145.01;100.00;59511.53;5115679;27;47089;-69
2021/07/06 01:32:26;;;;;;;;;1.00;0.00;;;;;-145.01;100.00;59511.53;5115883;27;45426;-70
2021/07/06 01:34:51;;;;;;;;;0.00;0.00;;;;;-145.01;100.00;59511.53;5115718;27;45414;-69
2021/07/06 01:37:18;;;;;;;;;0.00;0.00;;;;;-145.01;100.00;59511.53;5116258;27;45312;-70
2021/07/06 01:39:46;;;;;;;;;0.00;0.00;;;;;-145.01;100.00;59511.53;5116521;27;47063;-70
2021/07/06 01:42:16;;;;;;;;;0.00;0.00;;;;;-145.01;100.00;59511.53;5115703;27;47786;-69
2021/07/06 01:44:42;;;;;;;;;1.00;1.00;;;;;-145.01;100.00;59511.53;5116287;27;45458;-70
2021/07/06 01:47:07;;;;;;;;;0.00;0.00;;;;;-145.01;100.00;59511.53;5115527;27;45453;-70
2021/07/06 01:49:33;;;;;;;;;1.00;0.00;;;;;-145.01;100.00;59511.53;5115067;27;46549;-70
2021/07/06 01:51:59;;;;;;;;;0.00;0.00;;;;;-145.01;100.00;59511.53;5116859;27;45438;-70
2021/07/06 01:54:24;;;;;;;;;1.00;1.00;;;;;-145.01;100.00;59511.53;5115739;27;45544;-70
2021/07/06 01:56:49;;;;;;;;;0.00;0.00;;;;;-145.01;100.00;59511.53;5115654;27;45406;-70
2021/07/06 01:59:15;;;;;;;;;0.00;0.00;;;;;-145.01;100.00;59511.53;5115638;27;46296;-69
2021/07/06 02:01:43;;;;;;;;;0.67;0.00;;;;;-145.01;100.00;59511.53;5115794;27;45458;-69
2021/07/06 02:04:09;;;;;;;;;0.33;0.33;;;;;-145.01;100.00;59511.53;5115694;27;45432;-70
2021/07/06 02:06:34;;;;;;;;;4.00;1.00;;;;;-145.01;100.00;59511.53;5115234;27;45551;-70
2021/07/06 02:09:00;;;;;;;;;0.33;0.00;;;;;-145.01;100.00;59511.53;5115233;27;45965;-69
2021/07/06 02:11:26;;;;;;;;;0.67;0.00;;;;;-145.01;100.00;59511.53;5115733;27;45383;-70
2021/07/06 02:13:52;;;;;;;;;0.00;0.00;;;;;-145.01;100.00;59511.53;5115707;27;45320;-69
2021/07/06 02:16:17;;;;;;;;;1.00;0.00;;;;;-145.01;100.00;59511.53;5096313;27;45698;-70
2021/07/06 02:18:43;;;;;;;;;0.00;0.00;;;;;-145.01;100.00;59511.53;5115693;27;45300;-70
2021/07/06 02:21:09;;;;;;;;;0.00;0.00;;;;;-145.01;100.00;59511.53;5115498;27;45484;-69
2021/07/06 02:23:35;;;;;;;;;0.00;0.00;;;;;-145.01;100.00;59511.53;5115739;27;45349;-70
2021/07/06 02:26:08;;;;;;;;;0.67;0.67;;;;;-145.01;100.00;59511.53;5115673;27;45564;-70
2021/07/06 02:28:35;;;;;;;;;1.00;1.00;;;;;-145.01;100.00;59511.53;5099475;27;46075;-70
2021/07/06 02:31:01;;;;;;;;;0.00;0.00;;;;;-145.01;100.00;59511.53;5116191;27;45459;-69
2021/07/06 02:33:32;;;;;;;;;0.00;0.00;;;;;-145.01;100.00;59511.53;5115163;27;45436;-70
2021/07/06 02:35:57;;;;;;;;;0.00;0.00;;;;;-145.01;100.00;59511.53;5114977;27;45466;-70
2021/07/06 02:38:23;;;;;;;;;0.00;0.00;;;;;-145.01;100.00;59511.53;5114682;27;46117;-69
2021/07/06 02:40:48;;;;;;;;;0.00;0.00;;;;;-145.01;100.00;59511.53;5114991;27;45271;-70
2021/07/06 02:43:14;;;;;;;;;0.00;0.00;;;;;-145.01;100.00;59511.53;5115144;27;45653;-69
2021/07/06 02:45:39;;;;;;;;;0.00;0.00;;;;;-145.01;100.00;59511.53;5115674;27;45481;-70
2021/07/06 02:48:05;;;;;;;;;0.00;0.00;;;;;-145.01;100.00;59511.53;5114046;27;46729;-70
2021/07/06 02:50:30;;;;;;;;;0.00;0.00;;;;;-145.01;100.00;59511.53;5114832;27;45503;-70
2021/07/06 02:52:56;;;;;;;;;0.00;0.00;;;;;-145.01;100.00;59511.53;5115131;27;45335;-69
2021/07/06 02:55:22;;;;;;;;;0.00;0.00;;;;;-145.01;100.00;59511.53;5114995;27;45885;-69
2021/07/06 02:57:47;;;;;;;;;0.00;0.00;;;;;-145.01;100.00;59511.53;5118157;27;46131;-70
2021/07/06 03:00:17;;;;;;;;;0.00;0.00;;;;;-145.01;100.00;59511.53;5117892;27;45610;-69
2021/07/06 03:02:47;;;;;;;;;0.00;0.00;;;;;-145.01;100.00;59511.53;5118237;27;45488;-69
2021/07/06 03:05:15;;;;;;;;;0.00;0.00;;;;;-145.01;100.00;59511.53;5118708;27;45499;-69
2021/07/06 03:07:41;;;;;;;;;0.00;0.00;;;;;-145.01;100.00;59511.53;5117934;27;47245;-70
2021/07/06 03:10:15;;;;;;;;;0.00;0.00;;;;;-145.01;100.00;59511.53;5100307;27;45304;-70
2021/07/06 03:12:42;;;;;;;;;0.00;0.00;;;;;-145.01;100.00;59511.53;5118928;27;45516;-70
2021/07/06 03:15:10;;;;;;;;;1.00;1.00;;;;;-145.01;100.00;59511.53;5118128;27;45474;-70
2021/07/06 03:17:36;;;;;;;;;0.00;0.00;;;;;-145.01;100.00;59511.53;5117818;27;45400;-69
2021/07/06 03:20:04;;;;;;;;;0.00;0.00;;;;;-145.01;100.00;59511.53;5118201;27;45756;-69
2021/07/06 03:22:30;;;;;;;;;0.33;0.33;;;;;-145.01;100.00;59511.53;5101612;27;45393;-69
2021/07/06 03:24:55;;;;;;;;;0.00;0.00;;;;;-145.01;100.00;59511.53;5118604;27;45358;-69
2021/07/06 03:27:21;;;;;;;;;1.00;0.00;;;;;-145.01;100.00;59511.53;5117259;27;45441;-69
2021/07/06 03:29:47;;;;;;;;;0.00;0.00;;;;;-145.01;100.00;59511.53;5117108;27;45433;-68
2021/07/06 03:32:12;;;;;;;;;0.00;0.00;;;;;-145.01;100.00;59511.53;5117778;27;45497;-69
2021/07/06 03:34:39;;;;;;;;;0.00;0.00;;;;;-145.01;100.00;59511.53;5118011;27;45470;-69
2021/07/06 03:37:07;;;;;;;;;0.00;0.00;;;;;-145.01;100.00;59511.53;5118058;27;47029;-69
2021/07/06 03:39:34;;;;;;;;;1.33;0.33;;;;;-145.01;100.00;59511.53;5101590;27;45363;-69
2021/07/06 03:42:00;;;;;;;;;0.00;0.00;;;;;-145.01;100.00;59511.53;5113681;27;45561;-69
2021/07/06 03:44:25;;;;;;;;;0.00;0.00;;;;;-145.01;100.00;59511.53;5116957;27;45549;-69
2021/07/06 03:46:50;;;;;;;;;0.00;0.00;;;;;-145.01;100.00;59511.53;5117398;27;46139;-69
2021/07/06 03:49:16;;;;;;;;;0.67;0.00;;;;;-145.01;100.00;59511.53;5117259;27;45338;-69
2021/07/06 03:51:41;;;;;;;;;1.00;0.00;;;;;-145.01;100.00;59511.53;5118263;27;45471;-69
2021/07/06 03:54:06;;;;;;;;;0.00;0.00;;;;;-145.01;100.00;59511.53;5117623;27;45509;-69
2021/07/06 03:56:32;;;;;;;;;0.00;0.00;;;;;-145.01;100.00;59511.53;5117015;27;45946;-70
2021/07/06 03:58:57;;;;;;;;;1.33;0.00;;;;;-145.01;100.00;59511.53;5116830;27;45350;-68
2021/07/06 04:01:22;;;;;;;;;2.00;2.00;;;;;-145.01;100.00;59511.53;5117497;27;45330;-71
2021/07/06 04:03:48;;;;;;;;;0.00;0.00;;;;;-145.01;100.00;59511.53;5118211;27;45421;-70
2021/07/06 04:06:13;;;;;;;;;1.33;0.00;;;;;-145.01;100.00;59511.53;5117026;27;47019;-69
2021/07/06 04:08:38;;;;;;;;;0.00;0.00;;;;;-145.01;100.00;59511.53;5115701;27;45565;-69
2021/07/06 04:11:04;;;;;;;;;1.67;0.00;;;;;-145.01;100.00;59511.53;5116840;27;45456;-69
2021/07/06 04:13:29;;;;;;;;;1.00;1.00;;;;;-145.01;100.00;59511.53;5115892;27;45478;-70
2021/07/06 04:15:54;;;;;;;;;2.33;1.00;;;;;-145.01;100.00;59511.53;5117118;27;46066;-69
2021/07/06 04:18:20;;;;;;;;;0.33;0.33;;;;;-145.01;100.00;59511.53;5116584;27;45340;-69
2021/07/06 04:20:45;;;;;;;;;1.00;1.00;;;;;-145.01;100.00;59511.53;5116198;27;45379;-69
2021/07/06 04:23:10;;;;;;;;;2.00;0.00;;;;;-145.01;100.00;59511.53;5115895;27;45523;-71
2021/07/06 04:25:37;;;;;;;;;2.33;1.00;;;;;-145.01;100.00;59511.53;5115946;27;46266;-69
2021/07/06 04:28:03;;;;;;;;;0.00;0.00;;;;;-145.01;100.00;59511.53;5116466;27;45388;-69
2021/07/06 04:30:29;;;;;;;;;1.00;0.67;;;;;-145.01;100.00;59511.53;5116722;27;45453;-69
2021/07/06 04:32:54;;;;;;;;;0.33;0.33;;;;;-145.01;100.00;59511.53;5094248;27;45310;-69
2021/07/06 04:35:22;;;;;;;;;1.00;1.00;;;;;-145.01;100.00;59511.53;5106903;27;45939;-69
2021/07/06 04:37:48;;;;;;;;;2.67;1.33;;;;;-145.01;100.00;59511.53;5110432;27;45509;-69
2021/07/06 04:40:14;;;;;;;;;0.33;0.33;;;;;-145.01;100.00;59511.53;5116299;27;45224;-69
2021/07/06 04:42:39;;;;;;;;;0.00;0.00;;;;;-145.01;100.00;59511.53;5116138;27;45414;-69
2021/07/06 04:45:05;;;;;;;;;1.00;1.00;;;;;-145.01;100.00;59511.53;5115532;27;47021;-68
2021/07/06 04:47:31;;;;;;;;;0.00;0.00;;;;;-145.01;100.00;59511.53;5115259;27;45399;-70
2021/07/06 04:49:57;;;;;;;;;1.00;0.00;;;;;-145.01;100.00;59511.53;5115834;27;45500;-69
2021/07/06 04:52:22;;;;;;;;;0.33;0.33;;;;;-145.01;100.00;59511.53;5115643;27;45432;-71
2021/07/06 04:54:47;;;;;;;;;0.33;0.33;;;;;-145.01;100.00;59511.53;5098980;27;48404;-69
2021/07/06 04:57:13;;;;;;;;;3.00;0.00;;;;;-145.01;100.00;59511.53;5114400;27;45827;-69
2021/07/06 04:59:38;;;;;;;;;1.00;0.00;;;;;-145.01;100.00;59511.53;5115136;27;45529;-70
2021/07/06 05:02:05;;;;;;;;;2.00;1.00;;;;;-145.01;100.00;59511.53;5115064;27;45370;-70
2021/07/06 05:04:30;;;;;;;;;0.00;0.00;;;;;-145.01;100.00;59511.53;5097617;27;46531;-70
2021/07/06 05:06:56;;;;;;;;;2.67;1.67;;;;;-145.01;100.00;59511.53;5115610;27;45502;-69
2021/07/06 05:09:22;;;;;;;;;1.00;1.00;;;;;-145.01;100.00;59511.53;5115415;27;45366;-70
2021/07/06 05:11:47;;;;;;;;;0.00;0.00;;;;;-145.01;100.00;59511.53;5114200;27;45378;-70
2021/07/06 05:14:12;;;;;;;;;4.67;2.00;;;;;-145.01;100.00;59511.53;5114630;27;46587;-70
2021/07/06 05:16:38;;;;;;;;;1.00;0.00;;;;;-145.01;100.00;59511.53;5114824;27;45466;-70
2021/07/06 05:19:03;;;;;;;;;1.33;0.67;;;;;-145.01;100.00;59511.53;5114541;27;45298;-70
2021/07/06 05:21:29;;;;;;;;;1.75;0.75;;;;;-145.01;100.00;59511.53;5114903;27;45619;-70
2021/07/06 05:23:54;;;;;;;;;2.00;1.50;;;;;-145.01;100.00;59511.53;5114099;27;46282;-70
2021/07/06 05:26:20;;;;;;;;;1.33;1.33;;;;;-145.01;100.00;59511.53;5114826;27;45541;-70
2021/07/06 05:28:45;;;;;;;;;1.33;0.67;;;;;-145.01;100.00;59511.53;5115361;27;45389;-70
2021/07/06 05:31:10;;;;;;;;;1.33;0.00;;;;;-145.01;100.00;59511.53;5115084;27;45567;-70
2021/07/06 05:33:36;;;;;;;;;1.33;1.33;;;;;-145.01;100.00;59511.53;5115406;27;45358;-70
2021/07/06 05:36:01;;;;;;;;;2.00;1.00;;;;;-145.01;100.00;59511.53;5114270;27;45377;-70
2021/07/06 05:38:27;;;;;;;;;2.00;1.00;;;;;-145.01;100.00;59511.53;5114814;27;45406;-70
2021/07/06 05:40:55;;;;;;;;;4.00;0.67;;;;;-145.01;100.00;59511.53;5114198;27;45580;-70
2021/07/06 05:43:22;;;;;;;;;6.00;3.00;;;;;-145.01;100.00;59511.53;5114534;27;46224;-69
2021/07/06 05:45:52;;;;;;;;;1.33;1.00;;;;;-145.01;100.00;59511.53;5114995;27;45428;-70
2021/07/06 05:48:17;;;;;;;;;0.00;0.00;;;;;-145.01;100.00;59511.53;5113510;27;49629;-69
2021/07/06 05:50:42;;;;;;;;;0.33;0.00;;;;;-145.01;100.00;59511.53;5113613;27;45354;-70
2021/07/06 05:53:08;;;;;;;;;2.00;1.00;;;;;-145.01;100.00;59511.53;5095085;27;46952;-70
2021/07/06 05:55:35;;;;;;;;;2.00;1.00;;;;;-145.01;100.00;59511.53;5112528;27;45613;-70
2021/07/06 05:58:01;;;;;;;;;4.25;2.00;;;;;-145.01;100.00;59511.53;5113736;27;45280;-70
2021/07/06 06:00:26;;;;;;;;;1.00;1.00;;;;;-145.01;100.00;59511.53;5113353;27;45344;-70
2021/07/06 06:02:51;;;;;;;;;2.67;1.33;;;;;-145.01;100.00;59511.53;5104357;27;45575;-70
2021/07/06 06:05:17;;;;;;;;;2.67;2.33;;;;;-145.01;100.00;59511.53;5109076;27;45338;-71
2021/07/06 06:07:44;;;;;;;;;1.00;1.00;;;;;-145.01;100.00;59511.53;5101964;27;45455;-69
2021/07/06 06:10:11;;;;;;;;;1.67;1.67;;;;;-145.01;100.00;59511.53;5096531;27;45454;-70
2021/07/06 06:12:37;;;;;;;;;3.00;2.00;;;;;-145.01;100.00;59511.53;5113728;27;46093;-70
2021/07/06 06:15:04;;;;;;;;;6.00;3.00;;;;;-145.01;100.00;59511.53;5107424;27;46001;-70
2021/07/06 06:17:30;;;;;;;;;2.00;1.00;;;;;-145.01;100.00;59511.53;5110223;27;45447;-72
2021/07/06 06:19:56;;;;;;;;;3.00;3.00;;;;;-145.01;100.00;59511.53;5114970;27;45661;-72
2021/07/06 06:22:21;;;;;;;;;4.33;3.00;;;;;-145.01;100.00;59511.53;5106413;27;45921;-71
2021/07/06 06:24:47;;;;;;;;;5.00;2.50;;;;;-145.01;100.00;59511.53;5100878;27;45196;-72
2021/07/06 06:27:12;;;;;;;;;2.00;1.00;;;;;-145.01;100.00;59511.53;5112270;27;45357;-71
2021/07/06 06:29:38;;;;;;;;;2.67;0.67;;;;;-145.01;100.00;59511.53;5106757;27;45408;-68
2021/07/06 06:32:03;;;;;;;;;2.67;2.67;;;;;-145.01;100.00;59511.53;5089500;27;46152;-72
2021/07/06 06:34:29;;;;;;;;;3.75;3.50;;;;;-145.01;100.00;59511.53;5088129;27;45441;-69
2021/07/06 06:36:54;;;;;;;;;1.33;1.00;;;;;-145.01;100.00;59511.53;5114928;27;45379;-71
2021/07/06 06:39:21;;;;;;;;;1.67;1.00;;;;;-145.01;100.00;59511.53;5109972;27;45326;-72
2021/07/06 06:41:47;;;;;;;;;4.33;2.67;;;;;-145.01;100.00;59511.53;5108559;27;46155;-69
2021/07/06 06:44:12;;;;;;;;;2.00;2.00;;;;;-145.01;100.00;59511.53;5106268;27;45548;-70
2021/07/06 06:46:37;;;;;;;;;3.00;2.25;;;;;-145.01;100.00;59511.53;5115557;27;45638;-70
2021/07/06 06:49:04;;;;;;;;;4.00;3.00;;;;;-145.01;100.00;59511.53;5109657;27;45407;-73
2021/07/06 06:51:31;;;;;;;;;1.00;1.00;;;;;-145.01;100.00;59511.53;5106934;27;45323;-71
2021/07/06 06:53:56;;;;;;;;;6.75;3.25;;;;;-145.01;100.00;59511.53;5107900;27;45293;-72
2021/07/06 06:56:21;;;;;;;;;2.00;2.00;;;;;-145.01;100.00;59511.53;5102699;27;45406;-72
2021/07/06 06:58:47;;;;;;;;;7.50;2.00;;;;;-145.01;100.00;59511.53;5098782;27;45495;-73
2021/07/06 07:01:12;;;;;;;;;2.50;2.00;;;;;-145.01;100.00;59511.53;5085794;27;47271;-72
2021/07/06 07:03:38;;;;;;;;;2.67;2.67;;;;;-145.01;100.00;59511.53;5111053;27;45367;-72
2021/07/06 07:06:03;;;;;;;;;3.25;2.25;;;;;-145.01;100.00;59511.53;5107686;27;46066;-73
2021/07/06 07:08:28;;;;;;;;;3.50;2.25;;;;;-145.01;100.00;59511.53;5111458;27;45353;-71
2021/07/06 07:10:54;;;;;;;;;3.00;1.25;;;;;-145.01;100.00;59511.53;5101248;27;47032;-73
2021/07/06 07:13:19;;;;;;;;;1.00;0.00;;;;;-145.01;100.00;59511.53;5104211;27;45392;-69
2021/07/06 07:15:44;;;;;;;;;3.00;2.25;;;;;-145.01;100.00;59511.53;5102863;27;45734;-70
2021/07/06 07:18:10;;;;;;;;;1.00;1.00;;;;;-145.01;100.00;59511.53;5112302;27;45417;-71
2021/07/06 07:20:37;;;;;;;;;4.25;3.25;;;;;-145.01;100.00;59511.53;5109913;27;47189;-71
2021/07/06 07:23:03;;;;;;;;;1.75;1.25;;;;;-145.01;100.00;59511.53;5108307;27;45430;-69
2021/07/06 07:25:29;;;;;;;;;1.00;1.00;;;;;-145.01;100.00;59511.53;5108295;27;45389;-71
2021/07/06 07:27:56;;;;;;;;;3.00;2.00;;;;;-145.01;100.00;59511.53;5102743;27;45406;-72
2021/07/06 07:30:21;;;;;;;;;8.25;3.25;;;;;-145.01;100.00;59511.53;5109612;27;45411;-71
2021/07/06 07:32:48;;;;;;;;;2.50;2.50;;;;;-145.01;100.00;59511.53;5107902;27;45305;-72
2021/07/06 07:35:16;;;;;;;;;4.00;2.33;;;;;-145.01;100.00;59511.53;5114380;27;45425;-73
2021/07/06 07:37:42;;;;;;;;;4.00;2.50;;;;;-145.01;100.00;59511.53;5102655;27;45497;-71
2021/07/06 07:40:09;;;;;;;;;3.00;2.00;;;;;-145.01;100.00;59511.53;5104340;27;45978;-69
2021/07/06 07:42:35;;;;;;;;;2.33;2.33;;;;;-145.01;100.00;59511.53;5099752;27;45532;-72
2021/07/06 07:45:00;;;;;;;;;1.00;1.00;;;;;-145.01;100.00;59511.53;5116434;27;45488;-74
2021/07/06 07:47:26;;;;;;;;;3.33;2.00;;;;;-145.01;100.00;59511.53;5106366;27;45864;-74
2021/07/06 07:49:51;;;;;;;;;2.00;2.00;;;;;-145.01;100.00;59511.53;5115983;27;45870;-74
2021/07/06 07:52:16;;;;;;;;;2.00;2.00;;;;;-145.01;100.00;59511.53;5115141;27;45521;-75
2021/07/06 07:54:42;;;;;;;;;3.50;3.25;;;;;-145.01;100.00;59511.53;5116608;27;45325;-74
2021/07/06 07:57:11;;;;;;;;;4.00;1.33;;;;;-145.01;100.00;59511.53;5116987;27;45596;-73
2021/07/06 07:59:38;;;;;;;;;5.67;4.67;;;;;-145.01;100.00;59511.53;5115468;27;46333;-71
2021/07/06 08:02:04;;;;;;;;;3.67;2.33;;;;;-145.01;100.00;59511.53;5103160;27;45310;-71
2021/07/06 08:04:29;;;;;;;;;3.00;3.00;;;;;-145.01;100.00;59511.53;5104879;27;45281;-70
2021/07/06 08:06:54;;;;;;;;;4.67;2.00;;;;;-145.01;100.00;59511.53;5111564;27;45332;-70
2021/07/06 08:09:20;;;;;;;;;0.33;0.33;;;;;-145.01;100.00;59511.53;5103526;27;46471;-72
2021/07/06 08:11:45;;;;;;;;;2.67;0.67;;;;;-145.01;100.00;59511.53;5107130;27;45480;-72
2021/07/06 08:14:11;;;;;;;;;3.00;1.00;;;;;-145.01;100.00;59511.53;5106491;27;45448;-71
2021/07/06 08:16:36;;;;;;;;;3.00;2.00;;;;;-145.01;100.00;59511.53;5112844;27;45454;-72
2021/07/06 08:19:02;;;;;;;;;4.25;3.00;;;;;-145.01;100.00;59511.53;5110550;27;46090;-69
2021/07/06 08:21:27;;;;;;;;;2.50;2.50;;;;;-145.01;100.00;59511.53;5109986;27;45265;-71
2021/07/06 08:23:52;;;;;;;;;6.00;4.50;;;;;-145.01;100.00;59511.53;5108589;27;45425;-70
2021/07/06 08:26:18;;;;;;;;;2.25;2.00;;;;;-145.01;100.00;59511.53;5114239;27;45222;-71
2021/07/06 08:28:45;;;;;;;;;6.00;3.00;;;;;-145.01;100.00;59511.53;5113182;27;45489;-70
2021/07/06 08:31:12;;;;;;;;;5.75;2.50;;;;;-145.01;100.00;59511.53;5097516;27;45403;-71
2021/07/06 08:33:37;;;;;;;;;2.75;2.00;;;;;-145.01;100.00;59511.53;5102185;27;45378;-71
2021/07/06 08:36:02;;;;;;;;;2.00;2.00;;;;;-145.01;100.00;59511.53;5103867;27;45397;-71
2021/07/06 08:38:28;;;;;;;;;5.25;4.00;;;;;-145.01;100.00;59511.53;5099880;27;49040;-72
2021/07/06 08:40:53;;;;;;;;;2.25;2.25;;;;;-145.01;100.00;59511.53;5107387;27;45555;-70
2021/07/06 08:43:20;;;;;;;;;5.25;5.25;;;;;-145.01;100.00;59511.53;5109719;27;45232;-72
2021/07/06 08:45:46;;;;;;;;;3.67;2.00;;;;;-145.01;100.00;59511.53;5110167;27;45590;-72
2021/07/06 08:48:11;;;;;;;;;2.00;2.00;;;;;-145.01;100.00;59511.53;5088144;27;47738;-71
2021/07/06 08:50:47;;;;;;;;;9.75;5.75;;;;;-145.01;100.00;59511.53;5091542;27;45622;-72
2021/07/06 08:53:13;;;;;;;;;6.50;4.25;;;;;-145.01;100.00;59511.53;5102317;27;45476;-71
2021/07/06 08:55:38;;;;;;;;;3.67;2.00;;;;;-145.01;100.00;59511.53;5109218;27;45176;-71
2021/07/06 08:58:04;;;;;;;;;6.50;4.75;;;;;-145.01;100.00;59511.53;5111985;27;46412;-71
2021/07/06 09:00:30;;;;;;;;;6.25;4.75;;;;;-145.01;100.00;59511.53;5100824;27;45552;-71
2021/07/06 09:03:04;;;;;;;;;11.25;8.25;;;;;-145.01;100.00;59511.53;5109210;27;45324;-72
2021/07/06 09:05:31;;;;;;;;;5.75;3.75;;;;;-145.01;100.00;59511.53;5108024;27;45511;-71
2021/07/06 09:07:57;;;;;;;;;2.33;2.00;;;;;-145.01;100.00;59511.53;5102013;27;46406;-71
2021/07/06 09:10:25;;;;;;;;;4.75;3.75;;;;;-145.01;100.00;59511.53;5112814;27;45386;-72
2021/07/06 09:12:51;;;;;;;;;6.75;4.25;;;;;-145.01;100.00;59511.53;5100579;27;45378;-71
2021/07/06 09:15:24;;;;;;;;;2.00;2.00;;;;;-145.01;100.00;59511.53;5108178;27;45588;-72
2021/07/06 09:18:17;;;;;;;;;1.75;1.75;;;;;-145.01;100.00;59511.53;5106646;27;46639;-71
2021/07/06 09:20:57;;;;;;;;;4.50;3.00;;;;;-145.01;100.00;59511.53;5104405;27;45543;-70
2021/07/06 09:23:29;;;;;;;;;2.00;2.00;;;;;-145.01;100.00;59511.53;5110436;27;45530;-72
2021/07/06 09:26:21;;;;;;;;;4.75;4.25;;;;;-145.01;100.00;59511.53;5108211;27;45601;-73
2021/07/06 09:28:51;;;;;;;;;8.00;3.33;;;;;-145.01;100.00;59511.53;5098917;27;46714;-72
2021/07/06 09:31:22;;;;;;;;;4.00;3.00;;;;;-145.01;100.00;59511.53;5112177;27;45367;-72
2021/07/06 09:33:54;;;;;;;;;2.00;2.00;;;;;-145.01;100.00;59511.53;5099659;27;46215;-72
2021/07/06 09:36:47;;;;;;;;;2.00;2.00;;;;;-145.01;100.00;59511.53;5110846;27;45466;-70
2021/07/06 09:39:23;;;;;;;;;2.67;2.67;;;;;-145.01;100.00;59511.53;5111938;27;46222;-71
2021/07/06 09:41:56;;;;;;;;;3.00;2.00;;;;;-145.01;100.00;59511.53;5102922;27;45306;-71
2021/07/06 09:44:24;;;;;;;;;7.33;4.00;;;;;-145.01;100.00;59511.53;5104806;27;45501;-72
2021/07/06 09:46:55;;;;;;;;;2.67;1.33;;;;;-145.01;100.00;59511.53;5111619;27;45512;-72
2021/07/06 09:49:24;;;;;;;;;1.67;1.00;;;;;-145.01;100.00;59511.53;5097668;27;46359;-73
2021/07/06 09:51:50;;;;;;;;;3.33;3.00;;;;;-145.01;100.00;59511.53;5113835;27;45335;-71
2021/07/06 09:54:26;;;;;;;;;6.00;3.67;;;;;-145.01;100.00;59511.53;5104597;27;45531;-71
2021/07/06 09:56:53;;;;;;;;;3.67;3.67;;;;;-145.01;100.00;59511.53;5103203;27;45488;-72
2021/07/06 09:59:19;;;;;;;;;4.67;3.00;;;;;-145.01;100.00;59511.53;5106561;27;45564;-70
2021/07/06 10:01:54;;;;;;;;;5.00;4.00;;;;;-145.01;100.00;59511.53;5106065;27;45427;-71
2021/07/06 10:04:25;;;;;;;;;8.33;6.67;;;;;-145.01;100.00;59511.53;5097042;27;45449;-72
2021/07/06 10:06:51;;;;;;;;;4.33;4.33;;;;;-145.01;100.00;59511.53;5113528;27;45304;-72
2021/07/06 10:09:17;;;;;;;;;3.33;2.67;;;;;-145.01;100.00;59511.53;5104598;27;45528;-72
2021/07/06 10:11:42;;;;;;;;;1.33;1.33;;;;;-145.01;100.00;59511.53;5108466;27;45503;-72
2021/07/06 10:14:08;;;;;;;;;2.33;2.00;;;;;-145.01;100.00;59511.53;5108115;27;45494;-72
2021/07/06 10:16:35;;;;;;;;;7.67;5.33;;;;;-145.01;100.00;59511.53;5101507;27;45401;-71
2021/07/06 10:19:01;;;;;;;;;2.00;2.00;;;;;-145.01;100.00;59511.53;5107255;27;45532;-71
2021/07/06 10:21:27;;;;;;;;;5.67;2.67;;;;;-145.01;100.00;59511.53;5115704;27;46161;-72
2021/07/06 10:23:53;;;;;;;;;3.00;3.00;;;;;-145.01;100.00;59511.53;5104932;27;45498;-72
2021/07/06 10:26:27;;;;;;;;;3.00;3.00;;;;;-145.01;100.00;59511.53;5101949;27;45298;-72
2021/07/06 10:28:53;;;;;;;;;3.00;3.00;;;;;-145.01;100.00;59511.53;5114350;27;45371;-72
2021/07/06 10:31:21;;;;;;;;;5.33;1.67;;;;;-145.01;100.00;59511.53;5097449;27;45397;-72
2021/07/06 10:33:48;;;;;;;;;2.00;2.00;;;;;-145.01;100.00;59511.53;5114756;27;45524;-71
2021/07/06 10:36:16;;;;;;;;;1.67;1.00;;;;;-145.01;100.00;59511.53;5116045;27;45599;-72
2021/07/06 10:38:45;;;;;;;;;1.33;1.00;;;;;-145.01;100.00;59511.53;5110643;27;46180;-71
2021/07/06 10:41:11;;;;;;;;;2.00;1.00;;;;;-145.01;100.00;59511.53;5116135;27;45502;-72
2021/07/06 10:43:42;;;;;;;;;3.00;1.67;;;;;-145.01;100.00;59511.53;5114526;27;45446;-71
2021/07/06 10:46:20;;;;;;;;;4.00;1.67;;;;;-145.01;100.00;59511.53;5114781;27;45317;-70
2021/07/06 10:48:56;;;;;;;;;2.67;1.67;;;;;-145.01;100.00;59511.53;5099900;27;46345;-71
2021/07/06 10:51:33;;;;;;;;;2.67;2.67;;;;;-145.01;100.00;59511.53;5106109;27;45501;-70
2021/07/06 10:54:17;;;;;;;;;2.00;2.00;;;;;-145.01;100.00;59511.53;5106816;27;45577;-72
2021/07/06 10:56:51;;;;;;;;;1.67;1.67;;;;;-145.01;100.00;59511.53;5109006;27;45311;-72
2021/07/06 10:59:27;;;;;;;;;5.00;2.00;;;;;-145.01;100.00;59511.53;5105772;27;46405;-71
2021/07/06 11:01:57;;;;;;;;;5.67;3.00;;;;;-145.01;100.00;59511.53;5116524;27;45407;-72
2021/07/06 11:04:49;;;;;;;;;6.33;5.00;;;;;-145.01;100.00;59511.53;5115505;27;45416;-71
2021/07/06 11:07:16;;;;;;;;;2.67;2.00;;;;;-145.01;100.00;59511.53;5106482;27;45477;-72
2021/07/06 11:09:41;;;;;;;;;2.67;2.67;;;;;-145.01;100.00;59511.53;5106394;27;45987;-72